sensor_id;sensor_type;location;lat;lon;timestamp;P1;durP1;ratioP1;P2;durP2;ratioP2
13485;SDS011;6815;59.336;17.998;2023-08-21T00:00:50;21.55;;;14.77;;
13485;SDS011;6815;59.336;17.998;2023-08-21T00:03:16;22.30;;;14.57;;
13485;SDS011;6815;59.336;17.998;2023-08-21T00:05:41;21.23;;;14.00;;
13485;SDS011;6815;59.336;17.998;2023-08-21T00:08:07;19.17;;;14.27;;
13485;SDS011;6815;59.336;17.998;2023-08-21T00:10:32;20.05;;;13.73;;
13485;SDS011;6815;59.336;17.998;2023-08-21T00:12:58;20.52;;;14.13;;
13485;SDS011;6815;59.336;17.998;2023-08-21T00:15:23;17.60;;;12.73;;
13485;SDS011;6815;59.336;17.998;2023-08-21T00:17:49;18.13;;;12.68;;
13485;SDS011;6815;59.336;17.998;2023-08-21T00:20:14;15.90;;;12.13;;
13485;SDS011;6815;59.336;17.998;2023-08-21T00:22:40;15.88;;;12.20;;
13485;SDS011;6815;59.336;17.998;2023-08-21T00:25:05;18.77;;;13.00;;
13485;SDS011;6815;59.336;17.998;2023-08-21T00:27:31;18.35;;;12.40;;
13485;SDS011;6815;59.336;17.998;2023-08-21T00:29:57;17.35;;;11.80;;
13485;SDS011;6815;59.336;17.998;2023-08-21T00:32:23;17.98;;;12.60;;
13485;SDS011;6815;59.336;17.998;2023-08-21T00:34:48;19.20;;;12.80;;
13485;SDS011;6815;59.336;17.998;2023-08-21T00:37:14;20.10;;;13.25;;
13485;SDS011;6815;59.336;17.998;2023-08-21T00:39:39;16.80;;;12.50;;
13485;SDS011;6815;59.336;17.998;2023-08-21T00:42:05;20.80;;;14.25;;
13485;SDS011;6815;59.336;17.998;2023-08-21T00:44:32;19.05;;;12.80;;
13485;SDS011;6815;59.336;17.998;2023-08-21T00:46:57;17.35;;;13.23;;
13485;SDS011;6815;59.336;17.998;2023-08-21T00:49:23;16.38;;;11.90;;
13485;SDS011;6815;59.336;17.998;2023-08-21T00:51:48;16.48;;;12.63;;
13485;SDS011;6815;59.336;17.998;2023-08-21T00:54:15;18.15;;;12.63;;
13485;SDS011;6815;59.336;17.998;2023-08-21T00:56:40;16.70;;;12.02;;
13485;SDS011;6815;59.336;17.998;2023-08-21T00:59:06;19.92;;;13.68;;
13485;SDS011;6815;59.336;17.998;2023-08-21T01:01:33;18.65;;;12.73;;
13485;SDS011;6815;59.336;17.998;2023-08-21T01:03:59;18.60;;;13.10;;
13485;SDS011;6815;59.336;17.998;2023-08-21T01:06:24;20.48;;;13.52;;
13485;SDS011;6815;59.336;17.998;2023-08-21T01:08:57;16.83;;;12.88;;
13485;SDS011;6815;59.336;17.998;2023-08-21T01:12:12;18.13;;;13.25;;
13485;SDS011;6815;59.336;17.998;2023-08-21T01:17:25;16.85;;;12.13;;
13485;SDS011;6815;59.336;17.998;2023-08-21T01:19:51;16.70;;;12.50;;
13485;SDS011;6815;59.336;17.998;2023-08-21T01:22:17;18.27;;;12.75;;
13485;SDS011;6815;59.336;17.998;2023-08-21T01:24:43;16.58;;;12.85;;
13485;SDS011;6815;59.336;17.998;2023-08-21T01:27:09;16.48;;;11.85;;
13485;SDS011;6815;59.336;17.998;2023-08-21T01:29:37;19.63;;;13.32;;
13485;SDS011;6815;59.336;17.998;2023-08-21T01:34:40;17.75;;;13.02;;
13485;SDS011;6815;59.336;17.998;2023-08-21T01:37:07;17.88;;;12.93;;
13485;SDS011;6815;59.336;17.998;2023-08-21T01:39:33;15.55;;;12.60;;
13485;SDS011;6815;59.336;17.998;2023-08-21T01:41:59;19.17;;;13.70;;
13485;SDS011;6815;59.336;17.998;2023-08-21T01:44:24;17.38;;;13.65;;
13485;SDS011;6815;59.336;17.998;2023-08-21T01:46:51;19.13;;;13.88;;
13485;SDS011;6815;59.336;17.998;2023-08-21T01:49:17;17.90;;;13.55;;
13485;SDS011;6815;59.336;17.998;2023-08-21T01:51:44;17.50;;;12.80;;
13485;SDS011;6815;59.336;17.998;2023-08-21T01:54:09;14.45;;;12.02;;
13485;SDS011;6815;59.336;17.998;2023-08-21T01:56:34;16.65;;;12.00;;
13485;SDS011;6815;59.336;17.998;2023-08-21T01:59:01;14.05;;;11.10;;
13485;SDS011;6815;59.336;17.998;2023-08-21T02:01:27;15.40;;;11.88;;
13485;SDS011;6815;59.336;17.998;2023-08-21T02:03:52;19.10;;;12.88;;
13485;SDS011;6815;59.336;17.998;2023-08-21T02:06:18;17.48;;;13.00;;
13485;SDS011;6815;59.336;17.998;2023-08-21T02:08:43;16.75;;;12.85;;
13485;SDS011;6815;59.336;17.998;2023-08-21T02:11:08;16.55;;;12.55;;
13485;SDS011;6815;59.336;17.998;2023-08-21T02:13:34;17.25;;;12.27;;
13485;SDS011;6815;59.336;17.998;2023-08-21T02:15:59;15.93;;;11.55;;
13485;SDS011;6815;59.336;17.998;2023-08-21T02:18:25;17.00;;;13.00;;
13485;SDS011;6815;59.336;17.998;2023-08-21T02:20:50;15.00;;;11.30;;
13485;SDS011;6815;59.336;17.998;2023-08-21T02:23:16;16.63;;;12.15;;
13485;SDS011;6815;59.336;17.998;2023-08-21T02:25:41;13.30;;;11.50;;
13485;SDS011;6815;59.336;17.998;2023-08-21T02:28:07;14.98;;;11.68;;
13485;SDS011;6815;59.336;17.998;2023-08-21T02:30:33;16.38;;;11.52;;
13485;SDS011;6815;59.336;17.998;2023-08-21T02:32:59;18.05;;;12.07;;
13485;SDS011;6815;59.336;17.998;2023-08-21T02:35:24;15.45;;;11.15;;
13485;SDS011;6815;59.336;17.998;2023-08-21T02:37:50;14.30;;;10.95;;
13485;SDS011;6815;59.336;17.998;2023-08-21T02:40:15;15.85;;;10.95;;
13485;SDS011;6815;59.336;17.998;2023-08-21T02:42:41;15.20;;;11.07;;
13485;SDS011;6815;59.336;17.998;2023-08-21T02:45:06;14.40;;;11.88;;
13485;SDS011;6815;59.336;17.998;2023-08-21T02:47:37;14.70;;;10.73;;
13485;SDS011;6815;59.336;17.998;2023-08-21T02:50:04;17.35;;;11.68;;
13485;SDS011;6815;59.336;17.998;2023-08-21T02:52:30;15.35;;;10.85;;
13485;SDS011;6815;59.336;17.998;2023-08-21T02:54:56;17.58;;;11.98;;
13485;SDS011;6815;59.336;17.998;2023-08-21T02:57:23;14.13;;;11.35;;
13485;SDS011;6815;59.336;17.998;2023-08-21T02:59:49;13.55;;;10.98;;
13485;SDS011;6815;59.336;17.998;2023-08-21T03:02:14;14.93;;;10.93;;
13485;SDS011;6815;59.336;17.998;2023-08-21T03:04:40;16.20;;;10.73;;
13485;SDS011;6815;59.336;17.998;2023-08-21T03:07:05;15.40;;;11.68;;
13485;SDS011;6815;59.336;17.998;2023-08-21T03:09:30;16.48;;;12.32;;
13485;SDS011;6815;59.336;17.998;2023-08-21T03:11:56;13.43;;;10.85;;
13485;SDS011;6815;59.336;17.998;2023-08-21T03:14:21;13.85;;;10.50;;
13485;SDS011;6815;59.336;17.998;2023-08-21T03:16:47;15.45;;;10.82;;
13485;SDS011;6815;59.336;17.998;2023-08-21T03:19:12;11.90;;;9.43;;
13485;SDS011;6815;59.336;17.998;2023-08-21T03:21:37;13.70;;;10.27;;
13485;SDS011;6815;59.336;17.998;2023-08-21T03:24:03;14.95;;;10.55;;
13485;SDS011;6815;59.336;17.998;2023-08-21T03:26:28;11.48;;;9.35;;
13485;SDS011;6815;59.336;17.998;2023-08-21T03:28:54;13.13;;;9.50;;
13485;SDS011;6815;59.336;17.998;2023-08-21T03:31:19;11.95;;;9.73;;
13485;SDS011;6815;59.336;17.998;2023-08-21T03:33:45;11.50;;;9.52;;
13485;SDS011;6815;59.336;17.998;2023-08-21T03:36:11;13.48;;;9.02;;
13485;SDS011;6815;59.336;17.998;2023-08-21T03:38:37;13.05;;;9.57;;
13485;SDS011;6815;59.336;17.998;2023-08-21T03:41:02;11.38;;;8.95;;
13485;SDS011;6815;59.336;17.998;2023-08-21T03:43:28;11.07;;;9.20;;
13485;SDS011;6815;59.336;17.998;2023-08-21T03:45:53;12.10;;;8.77;;
13485;SDS011;6815;59.336;17.998;2023-08-21T03:48:18;11.85;;;9.38;;
13485;SDS011;6815;59.336;17.998;2023-08-21T03:50:44;11.48;;;8.35;;
13485;SDS011;6815;59.336;17.998;2023-08-21T03:53:09;10.60;;;7.20;;
13485;SDS011;6815;59.336;17.998;2023-08-21T03:55:34;10.40;;;7.97;;
13485;SDS011;6815;59.336;17.998;2023-08-21T03:58:00;8.77;;;6.55;;
13485;SDS011;6815;59.336;17.998;2023-08-21T04:00:26;7.82;;;6.30;;
13485;SDS011;6815;59.336;17.998;2023-08-21T04:02:51;7.47;;;6.18;;
13485;SDS011;6815;59.336;17.998;2023-08-21T04:05:16;9.52;;;6.90;;
13485;SDS011;6815;59.336;17.998;2023-08-21T04:07:42;8.50;;;6.40;;
13485;SDS011;6815;59.336;17.998;2023-08-21T04:10:07;7.63;;;5.97;;
13485;SDS011;6815;59.336;17.998;2023-08-21T04:12:33;6.60;;;5.55;;
13485;SDS011;6815;59.336;17.998;2023-08-21T04:14:58;7.15;;;5.85;;
13485;SDS011;6815;59.336;17.998;2023-08-21T04:17:23;8.80;;;6.63;;
13485;SDS011;6815;59.336;17.998;2023-08-21T04:19:49;8.85;;;6.07;;
13485;SDS011;6815;59.336;17.998;2023-08-21T04:22:15;7.95;;;5.85;;
13485;SDS011;6815;59.336;17.998;2023-08-21T04:24:41;5.75;;;5.15;;
13485;SDS011;6815;59.336;17.998;2023-08-21T04:27:07;6.20;;;5.57;;
13485;SDS011;6815;59.336;17.998;2023-08-21T04:29:33;8.32;;;5.70;;
13485;SDS011;6815;59.336;17.998;2023-08-21T04:32:00;6.65;;;5.68;;
13485;SDS011;6815;59.336;17.998;2023-08-21T04:34:25;6.63;;;5.63;;
13485;SDS011;6815;59.336;17.998;2023-08-21T04:36:50;5.90;;;4.88;;
13485;SDS011;6815;59.336;17.998;2023-08-21T04:39:17;5.55;;;4.80;;
13485;SDS011;6815;59.336;17.998;2023-08-21T04:41:42;6.47;;;5.20;;
13485;SDS011;6815;59.336;17.998;2023-08-21T04:44:07;5.53;;;5.03;;
13485;SDS011;6815;59.336;17.998;2023-08-21T04:46:33;6.80;;;5.00;;
13485;SDS011;6815;59.336;17.998;2023-08-21T04:48:58;5.88;;;5.28;;
13485;SDS011;6815;59.336;17.998;2023-08-21T04:51:24;6.00;;;5.38;;
13485;SDS011;6815;59.336;17.998;2023-08-21T04:53:49;6.22;;;4.85;;
13485;SDS011;6815;59.336;17.998;2023-08-21T04:56:14;5.97;;;4.78;;
13485;SDS011;6815;59.336;17.998;2023-08-21T04:58:40;7.32;;;4.85;;
13485;SDS011;6815;59.336;17.998;2023-08-21T05:01:05;6.70;;;5.43;;
13485;SDS011;6815;59.336;17.998;2023-08-21T05:03:31;6.40;;;5.40;;
13485;SDS011;6815;59.336;17.998;2023-08-21T05:05:56;6.10;;;4.97;;
13485;SDS011;6815;59.336;17.998;2023-08-21T05:08:22;8.02;;;5.32;;
13485;SDS011;6815;59.336;17.998;2023-08-21T05:10:54;7.30;;;5.10;;
13485;SDS011;6815;59.336;17.998;2023-08-21T05:13:23;6.50;;;5.50;;
13485;SDS011;6815;59.336;17.998;2023-08-21T05:15:55;6.45;;;5.07;;
13485;SDS011;6815;59.336;17.998;2023-08-21T05:18:22;6.43;;;5.15;;
13485;SDS011;6815;59.336;17.998;2023-08-21T05:20:48;7.32;;;5.20;;
13485;SDS011;6815;59.336;17.998;2023-08-21T05:23:14;5.85;;;4.75;;
13485;SDS011;6815;59.336;17.998;2023-08-21T05:25:40;6.40;;;4.88;;
13485;SDS011;6815;59.336;17.998;2023-08-21T05:28:06;9.30;;;5.00;;
13485;SDS011;6815;59.336;17.998;2023-08-21T05:30:32;11.32;;;5.25;;
13485;SDS011;6815;59.336;17.998;2023-08-21T05:32:57;7.32;;;4.72;;
13485;SDS011;6815;59.336;17.998;2023-08-21T05:35:23;7.03;;;4.75;;
13485;SDS011;6815;59.336;17.998;2023-08-21T05:37:48;8.07;;;5.15;;
13485;SDS011;6815;59.336;17.998;2023-08-21T05:40:14;5.97;;;4.60;;
13485;SDS011;6815;59.336;17.998;2023-08-21T05:42:39;6.93;;;4.72;;
13485;SDS011;6815;59.336;17.998;2023-08-21T05:45:05;5.43;;;4.13;;
13485;SDS011;6815;59.336;17.998;2023-08-21T05:47:31;7.78;;;4.53;;
13485;SDS011;6815;59.336;17.998;2023-08-21T05:49:56;6.72;;;5.18;;
13485;SDS011;6815;59.336;17.998;2023-08-21T05:52:22;5.93;;;4.20;;
13485;SDS011;6815;59.336;17.998;2023-08-21T05:54:47;9.65;;;4.53;;
13485;SDS011;6815;59.336;17.998;2023-08-21T05:57:13;4.72;;;4.00;;
13485;SDS011;6815;59.336;17.998;2023-08-21T05:59:43;5.38;;;4.18;;
13485;SDS011;6815;59.336;17.998;2023-08-21T06:02:10;6.40;;;3.90;;
13485;SDS011;6815;59.336;17.998;2023-08-21T06:04:36;5.20;;;3.90;;
13485;SDS011;6815;59.336;17.998;2023-08-21T06:07:05;4.88;;;4.03;;
13485;SDS011;6815;59.336;17.998;2023-08-21T06:09:30;5.85;;;3.55;;
13485;SDS011;6815;59.336;17.998;2023-08-21T06:11:58;11.98;;;4.93;;
13485;SDS011;6815;59.336;17.998;2023-08-21T06:14:25;7.85;;;4.28;;
13485;SDS011;6815;59.336;17.998;2023-08-21T06:17:01;5.07;;;3.30;;
13485;SDS011;6815;59.336;17.998;2023-08-21T06:19:28;8.48;;;3.55;;
13485;SDS011;6815;59.336;17.998;2023-08-21T06:21:54;5.00;;;3.28;;
13485;SDS011;6815;59.336;17.998;2023-08-21T06:24:20;6.90;;;3.67;;
13485;SDS011;6815;59.336;17.998;2023-08-21T06:26:46;8.70;;;3.58;;
13485;SDS011;6815;59.336;17.998;2023-08-21T06:29:12;6.82;;;3.83;;
13485;SDS011;6815;59.336;17.998;2023-08-21T06:31:37;6.03;;;3.30;;
13485;SDS011;6815;59.336;17.998;2023-08-21T06:34:02;7.30;;;3.80;;
13485;SDS011;6815;59.336;17.998;2023-08-21T06:36:28;5.93;;;3.70;;
13485;SDS011;6815;59.336;17.998;2023-08-21T06:38:54;7.03;;;3.72;;
13485;SDS011;6815;59.336;17.998;2023-08-21T06:41:20;7.63;;;4.10;;
13485;SDS011;6815;59.336;17.998;2023-08-21T06:43:45;7.20;;;3.92;;
13485;SDS011;6815;59.336;17.998;2023-08-21T06:46:11;4.65;;;3.55;;
13485;SDS011;6815;59.336;17.998;2023-08-21T06:48:37;5.28;;;3.50;;
13485;SDS011;6815;59.336;17.998;2023-08-21T06:51:04;7.22;;;4.20;;
13485;SDS011;6815;59.336;17.998;2023-08-21T06:53:30;5.57;;;3.60;;
13485;SDS011;6815;59.336;17.998;2023-08-21T06:55:56;5.53;;;3.80;;
13485;SDS011;6815;59.336;17.998;2023-08-21T06:58:21;6.93;;;4.40;;
13485;SDS011;6815;59.336;17.998;2023-08-21T07:00:47;6.38;;;3.83;;
13485;SDS011;6815;59.336;17.998;2023-08-21T07:03:12;5.22;;;3.72;;
13485;SDS011;6815;59.336;17.998;2023-08-21T07:05:38;5.45;;;3.78;;
13485;SDS011;6815;59.336;17.998;2023-08-21T07:08:03;5.95;;;3.88;;
13485;SDS011;6815;59.336;17.998;2023-08-21T07:10:29;5.90;;;3.97;;
13485;SDS011;6815;59.336;17.998;2023-08-21T07:12:55;5.30;;;3.75;;
13485;SDS011;6815;59.336;17.998;2023-08-21T07:15:20;7.60;;;3.67;;
13485;SDS011;6815;59.336;17.998;2023-08-21T07:17:46;4.22;;;3.47;;
13485;SDS011;6815;59.336;17.998;2023-08-21T07:20:12;3.97;;;3.22;;
13485;SDS011;6815;59.336;17.998;2023-08-21T07:22:37;4.40;;;3.40;;
13485;SDS011;6815;59.336;17.998;2023-08-21T07:25:03;6.10;;;3.78;;
13485;SDS011;6815;59.336;17.998;2023-08-21T07:27:32;4.20;;;3.70;;
13485;SDS011;6815;59.336;17.998;2023-08-21T07:29:57;8.35;;;3.80;;
13485;SDS011;6815;59.336;17.998;2023-08-21T07:32:23;8.18;;;3.70;;
13485;SDS011;6815;59.336;17.998;2023-08-21T07:34:52;5.72;;;3.67;;
13485;SDS011;6815;59.336;17.998;2023-08-21T07:37:19;6.22;;;3.67;;
13485;SDS011;6815;59.336;17.998;2023-08-21T07:39:45;6.13;;;3.65;;
13485;SDS011;6815;59.336;17.998;2023-08-21T07:42:11;7.22;;;3.90;;
13485;SDS011;6815;59.336;17.998;2023-08-21T07:44:38;4.50;;;3.40;;
13485;SDS011;6815;59.336;17.998;2023-08-21T07:47:04;7.90;;;3.28;;
13485;SDS011;6815;59.336;17.998;2023-08-21T07:49:30;6.22;;;3.80;;
13485;SDS011;6815;59.336;17.998;2023-08-21T07:51:56;5.05;;;3.75;;
13485;SDS011;6815;59.336;17.998;2023-08-21T07:54:22;6.57;;;4.13;;
13485;SDS011;6815;59.336;17.998;2023-08-21T07:56:47;7.57;;;3.97;;
13485;SDS011;6815;59.336;17.998;2023-08-21T07:59:12;4.80;;;3.75;;
13485;SDS011;6815;59.336;17.998;2023-08-21T08:01:38;5.60;;;3.72;;
13485;SDS011;6815;59.336;17.998;2023-08-21T08:04:04;6.00;;;3.72;;
13485;SDS011;6815;59.336;17.998;2023-08-21T08:06:30;6.38;;;3.55;;
13485;SDS011;6815;59.336;17.998;2023-08-21T08:08:56;4.72;;;3.25;;
13485;SDS011;6815;59.336;17.998;2023-08-21T08:11:22;6.60;;;3.55;;
13485;SDS011;6815;59.336;17.998;2023-08-21T08:13:48;7.20;;;4.20;;
13485;SDS011;6815;59.336;17.998;2023-08-21T08:16:13;6.65;;;3.63;;
13485;SDS011;6815;59.336;17.998;2023-08-21T08:18:39;6.50;;;3.88;;
13485;SDS011;6815;59.336;17.998;2023-08-21T08:21:04;4.40;;;3.90;;
13485;SDS011;6815;59.336;17.998;2023-08-21T08:23:30;7.18;;;3.33;;
13485;SDS011;6815;59.336;17.998;2023-08-21T08:25:55;6.75;;;3.58;;
13485;SDS011;6815;59.336;17.998;2023-08-21T08:28:20;7.00;;;4.22;;
13485;SDS011;6815;59.336;17.998;2023-08-21T08:30:46;8.38;;;3.80;;
13485;SDS011;6815;59.336;17.998;2023-08-21T08:33:11;6.20;;;3.70;;
13485;SDS011;6815;59.336;17.998;2023-08-21T08:35:37;6.43;;;3.83;;
13485;SDS011;6815;59.336;17.998;2023-08-21T08:38:02;6.75;;;3.88;;
13485;SDS011;6815;59.336;17.998;2023-08-21T08:40:28;5.18;;;3.35;;
13485;SDS011;6815;59.336;17.998;2023-08-21T08:42:53;4.10;;;3.20;;
13485;SDS011;6815;59.336;17.998;2023-08-21T08:45:24;5.35;;;3.50;;
13485;SDS011;6815;59.336;17.998;2023-08-21T08:48:00;6.40;;;3.83;;
13485;SDS011;6815;59.336;17.998;2023-08-21T08:50:27;4.50;;;3.40;;
13485;SDS011;6815;59.336;17.998;2023-08-21T08:52:54;5.20;;;3.88;;
13485;SDS011;6815;59.336;17.998;2023-08-21T08:55:22;6.53;;;4.00;;
13485;SDS011;6815;59.336;17.998;2023-08-21T08:57:47;8.00;;;3.63;;
13485;SDS011;6815;59.336;17.998;2023-08-21T09:00:13;3.83;;;3.22;;
13485;SDS011;6815;59.336;17.998;2023-08-21T09:02:39;5.75;;;3.30;;
13485;SDS011;6815;59.336;17.998;2023-08-21T09:05:04;4.60;;;3.47;;
13485;SDS011;6815;59.336;17.998;2023-08-21T09:07:30;5.15;;;3.55;;
13485;SDS011;6815;59.336;17.998;2023-08-21T09:09:55;4.75;;;2.97;;
13485;SDS011;6815;59.336;17.998;2023-08-21T09:12:21;7.68;;;3.35;;
13485;SDS011;6815;59.336;17.998;2023-08-21T09:14:46;6.97;;;3.33;;
13485;SDS011;6815;59.336;17.998;2023-08-21T09:17:12;6.25;;;3.20;;
13485;SDS011;6815;59.336;17.998;2023-08-21T09:19:38;5.85;;;3.10;;
13485;SDS011;6815;59.336;17.998;2023-08-21T09:22:08;3.42;;;2.75;;
13485;SDS011;6815;59.336;17.998;2023-08-21T09:24:38;4.65;;;3.10;;
13485;SDS011;6815;59.336;17.998;2023-08-21T09:27:05;6.03;;;3.38;;
13485;SDS011;6815;59.336;17.998;2023-08-21T09:29:38;6.93;;;3.22;;
13485;SDS011;6815;59.336;17.998;2023-08-21T09:32:07;6.03;;;3.42;;
13485;SDS011;6815;59.336;17.998;2023-08-21T09:34:33;4.07;;;3.20;;
13485;SDS011;6815;59.336;17.998;2023-08-21T09:37:01;4.43;;;3.30;;
13485;SDS011;6815;59.336;17.998;2023-08-21T09:39:32;5.15;;;3.30;;
13485;SDS011;6815;59.336;17.998;2023-08-21T09:41:59;7.70;;;3.60;;
13485;SDS011;6815;59.336;17.998;2023-08-21T09:44:25;4.50;;;2.60;;
13485;SDS011;6815;59.336;17.998;2023-08-21T09:46:51;7.50;;;2.85;;
13485;SDS011;6815;59.336;17.998;2023-08-21T09:49:17;4.53;;;2.78;;
13485;SDS011;6815;59.336;17.998;2023-08-21T09:51:44;3.97;;;2.95;;
13485;SDS011;6815;59.336;17.998;2023-08-21T09:54:10;6.63;;;3.08;;
13485;SDS011;6815;59.336;17.998;2023-08-21T09:56:37;5.45;;;2.92;;
13485;SDS011;6815;59.336;17.998;2023-08-21T09:59:03;3.60;;;2.80;;
13485;SDS011;6815;59.336;17.998;2023-08-21T10:01:28;4.95;;;3.08;;
13485;SDS011;6815;59.336;17.998;2023-08-21T10:03:59;2.75;;;2.42;;
13485;SDS011;6815;59.336;17.998;2023-08-21T10:06:28;9.43;;;3.22;;
13485;SDS011;6815;59.336;17.998;2023-08-21T10:08:55;4.50;;;3.03;;
13485;SDS011;6815;59.336;17.998;2023-08-21T10:11:21;6.18;;;2.67;;
13485;SDS011;6815;59.336;17.998;2023-08-21T10:13:47;4.03;;;2.78;;
13485;SDS011;6815;59.336;17.998;2023-08-21T10:16:16;4.60;;;2.60;;
13485;SDS011;6815;59.336;17.998;2023-08-21T10:18:45;4.47;;;2.70;;
13485;SDS011;6815;59.336;17.998;2023-08-21T10:21:12;2.75;;;2.22;;
13485;SDS011;6815;59.336;17.998;2023-08-21T10:23:38;4.05;;;2.78;;
13485;SDS011;6815;59.336;17.998;2023-08-21T10:26:08;6.43;;;2.90;;
13485;SDS011;6815;59.336;17.998;2023-08-21T10:28:54;4.50;;;2.70;;
13485;SDS011;6815;59.336;17.998;2023-08-21T10:31:26;5.63;;;3.50;;
13485;SDS011;6815;59.336;17.998;2023-08-21T10:33:58;3.33;;;2.70;;
13485;SDS011;6815;59.336;17.998;2023-08-21T10:36:37;2.95;;;2.45;;
13485;SDS011;6815;59.336;17.998;2023-08-21T10:39:18;3.38;;;2.47;;
13485;SDS011;6815;59.336;17.998;2023-08-21T10:42:00;4.47;;;2.85;;
13485;SDS011;6815;59.336;17.998;2023-08-21T10:47:19;4.13;;;2.55;;
13485;SDS011;6815;59.336;17.998;2023-08-21T10:49:57;2.75;;;2.50;;
13485;SDS011;6815;59.336;17.998;2023-08-21T10:52:25;4.25;;;2.60;;
13485;SDS011;6815;59.336;17.998;2023-08-21T10:54:51;3.65;;;2.63;;
13485;SDS011;6815;59.336;17.998;2023-08-21T10:57:18;4.13;;;2.40;;
13485;SDS011;6815;59.336;17.998;2023-08-21T10:59:51;3.83;;;2.40;;
13485;SDS011;6815;59.336;17.998;2023-08-21T11:02:18;3.90;;;2.67;;
13485;SDS011;6815;59.336;17.998;2023-08-21T11:04:44;4.32;;;2.50;;
13485;SDS011;6815;59.336;17.998;2023-08-21T11:07:09;3.72;;;2.45;;
13485;SDS011;6815;59.336;17.998;2023-08-21T11:09:37;4.90;;;2.72;;
13485;SDS011;6815;59.336;17.998;2023-08-21T11:12:10;6.38;;;2.42;;
13485;SDS011;6815;59.336;17.998;2023-08-21T11:14:40;5.65;;;2.85;;
13485;SDS011;6815;59.336;17.998;2023-08-21T11:17:06;4.43;;;2.40;;
13485;SDS011;6815;59.336;17.998;2023-08-21T11:19:33;4.65;;;2.05;;
13485;SDS011;6815;59.336;17.998;2023-08-21T11:21:59;4.35;;;2.45;;
13485;SDS011;6815;59.336;17.998;2023-08-21T11:27:09;5.47;;;2.70;;
13485;SDS011;6815;59.336;17.998;2023-08-21T11:29:37;3.78;;;2.40;;
13485;SDS011;6815;59.336;17.998;2023-08-21T11:32:11;3.63;;;2.22;;
13485;SDS011;6815;59.336;17.998;2023-08-21T11:34:48;4.50;;;2.35;;
13485;SDS011;6815;59.336;17.998;2023-08-21T11:37:13;4.82;;;2.42;;
13485;SDS011;6815;59.336;17.998;2023-08-21T11:39:45;3.70;;;2.00;;
13485;SDS011;6815;59.336;17.998;2023-08-21T11:42:13;4.32;;;2.70;;
13485;SDS011;6815;59.336;17.998;2023-08-21T11:44:43;4.95;;;2.45;;
13485;SDS011;6815;59.336;17.998;2023-08-21T11:47:10;6.03;;;2.60;;
13485;SDS011;6815;59.336;17.998;2023-08-21T11:49:36;3.40;;;2.20;;
13485;SDS011;6815;59.336;17.998;2023-08-21T11:52:03;4.10;;;2.40;;
13485;SDS011;6815;59.336;17.998;2023-08-21T11:54:34;2.53;;;2.20;;
13485;SDS011;6815;59.336;17.998;2023-08-21T11:57:05;3.92;;;2.08;;
13485;SDS011;6815;59.336;17.998;2023-08-21T11:59:34;3.42;;;2.33;;
13485;SDS011;6815;59.336;17.998;2023-08-21T12:02:00;2.85;;;2.10;;
13485;SDS011;6815;59.336;17.998;2023-08-21T12:04:32;5.72;;;2.30;;
13485;SDS011;6815;59.336;17.998;2023-08-21T12:06:58;4.07;;;2.50;;
13485;SDS011;6815;59.336;17.998;2023-08-21T12:09:23;4.18;;;2.35;;
13485;SDS011;6815;59.336;17.998;2023-08-21T12:11:49;3.50;;;2.22;;
13485;SDS011;6815;59.336;17.998;2023-08-21T12:14:14;3.67;;;2.20;;
13485;SDS011;6815;59.336;17.998;2023-08-21T12:16:39;3.25;;;2.17;;
13485;SDS011;6815;59.336;17.998;2023-08-21T12:19:05;3.55;;;2.40;;
13485;SDS011;6815;59.336;17.998;2023-08-21T12:21:34;3.70;;;2.35;;
13485;SDS011;6815;59.336;17.998;2023-08-21T12:24:02;2.58;;;2.20;;
13485;SDS011;6815;59.336;17.998;2023-08-21T12:26:29;4.20;;;2.10;;
13485;SDS011;6815;59.336;17.998;2023-08-21T12:28:54;4.20;;;1.95;;
13485;SDS011;6815;59.336;17.998;2023-08-21T12:31:19;4.55;;;2.40;;
13485;SDS011;6815;59.336;17.998;2023-08-21T12:33:45;4.43;;;2.60;;
13485;SDS011;6815;59.336;17.998;2023-08-21T12:36:10;5.88;;;2.25;;
13485;SDS011;6815;59.336;17.998;2023-08-21T12:38:35;3.70;;;2.05;;
13485;SDS011;6815;59.336;17.998;2023-08-21T12:41:01;4.30;;;2.13;;
13485;SDS011;6815;59.336;17.998;2023-08-21T12:43:27;4.13;;;2.22;;
13485;SDS011;6815;59.336;17.998;2023-08-21T12:45:53;2.72;;;1.90;;
13485;SDS011;6815;59.336;17.998;2023-08-21T12:48:18;2.65;;;1.92;;
13485;SDS011;6815;59.336;17.998;2023-08-21T12:50:44;2.75;;;1.88;;
13485;SDS011;6815;59.336;17.998;2023-08-21T12:53:09;5.35;;;2.10;;
13485;SDS011;6815;59.336;17.998;2023-08-21T12:55:35;3.22;;;2.08;;
13485;SDS011;6815;59.336;17.998;2023-08-21T12:58:01;3.47;;;2.10;;
13485;SDS011;6815;59.336;17.998;2023-08-21T13:00:26;4.07;;;2.17;;
13485;SDS011;6815;59.336;17.998;2023-08-21T13:02:52;4.90;;;2.10;;
13485;SDS011;6815;59.336;17.998;2023-08-21T13:05:17;3.00;;;1.90;;
13485;SDS011;6815;59.336;17.998;2023-08-21T13:07:42;4.65;;;2.58;;
13485;SDS011;6815;59.336;17.998;2023-08-21T13:10:08;3.72;;;2.20;;
13485;SDS011;6815;59.336;17.998;2023-08-21T13:12:33;2.95;;;2.03;;
13485;SDS011;6815;59.336;17.998;2023-08-21T13:14:59;5.85;;;2.25;;
13485;SDS011;6815;59.336;17.998;2023-08-21T13:17:25;4.63;;;2.05;;
13485;SDS011;6815;59.336;17.998;2023-08-21T13:19:50;2.60;;;1.80;;
13485;SDS011;6815;59.336;17.998;2023-08-21T13:22:16;3.33;;;2.05;;
13485;SDS011;6815;59.336;17.998;2023-08-21T13:24:42;3.67;;;2.05;;
13485;SDS011;6815;59.336;17.998;2023-08-21T13:27:07;3.42;;;1.83;;
13485;SDS011;6815;59.336;17.998;2023-08-21T13:29:33;4.75;;;2.28;;
13485;SDS011;6815;59.336;17.998;2023-08-21T13:31:58;4.22;;;1.95;;
13485;SDS011;6815;59.336;17.998;2023-08-21T13:34:24;1.83;;;1.70;;
13485;SDS011;6815;59.336;17.998;2023-08-21T13:36:49;4.57;;;2.28;;
13485;SDS011;6815;59.336;17.998;2023-08-21T13:39:15;5.43;;;2.35;;
13485;SDS011;6815;59.336;17.998;2023-08-21T13:41:41;4.63;;;2.47;;
13485;SDS011;6815;59.336;17.998;2023-08-21T13:44:06;4.55;;;2.38;;
13485;SDS011;6815;59.336;17.998;2023-08-21T13:46:33;5.20;;;2.25;;
13485;SDS011;6815;59.336;17.998;2023-08-21T13:48:59;3.90;;;2.20;;
13485;SDS011;6815;59.336;17.998;2023-08-21T13:51:25;5.60;;;2.15;;
13485;SDS011;6815;59.336;17.998;2023-08-21T13:53:50;3.10;;;2.10;;
13485;SDS011;6815;59.336;17.998;2023-08-21T13:56:16;4.60;;;2.63;;
13485;SDS011;6815;59.336;17.998;2023-08-21T13:58:41;4.05;;;2.30;;
13485;SDS011;6815;59.336;17.998;2023-08-21T14:01:06;4.35;;;2.00;;
13485;SDS011;6815;59.336;17.998;2023-08-21T14:03:33;4.00;;;1.95;;
13485;SDS011;6815;59.336;17.998;2023-08-21T14:05:59;3.60;;;1.90;;
13485;SDS011;6815;59.336;17.998;2023-08-21T14:08:24;3.33;;;1.90;;
13485;SDS011;6815;59.336;17.998;2023-08-21T14:10:50;2.28;;;1.80;;
13485;SDS011;6815;59.336;17.998;2023-08-21T14:13:15;3.67;;;1.90;;
13485;SDS011;6815;59.336;17.998;2023-08-21T14:15:40;3.35;;;1.58;;
13485;SDS011;6815;59.336;17.998;2023-08-21T14:18:06;2.10;;;1.63;;
13485;SDS011;6815;59.336;17.998;2023-08-21T14:20:31;2.15;;;1.95;;
13485;SDS011;6815;59.336;17.998;2023-08-21T14:22:57;2.20;;;1.70;;
13485;SDS011;6815;59.336;17.998;2023-08-21T14:25:22;3.10;;;1.98;;
13485;SDS011;6815;59.336;17.998;2023-08-21T14:27:48;3.28;;;1.95;;
13485;SDS011;6815;59.336;17.998;2023-08-21T14:30:14;3.30;;;2.03;;
13485;SDS011;6815;59.336;17.998;2023-08-21T14:32:40;2.72;;;1.85;;
13485;SDS011;6815;59.336;17.998;2023-08-21T14:35:05;2.53;;;1.60;;
13485;SDS011;6815;59.336;17.998;2023-08-21T14:37:37;3.17;;;1.80;;
13485;SDS011;6815;59.336;17.998;2023-08-21T14:40:04;4.18;;;1.77;;
13485;SDS011;6815;59.336;17.998;2023-08-21T14:42:34;4.40;;;1.95;;
13485;SDS011;6815;59.336;17.998;2023-08-21T14:44:59;3.47;;;1.52;;
13485;SDS011;6815;59.336;17.998;2023-08-21T14:47:25;4.28;;;1.92;;